Time;durP1;ratioP1;P1;durP2;ratioP2;P2;SDS_P1;SDS_P2;PMS_P1;PMS_P2;Temp;Humidity;BMP_temperature;BMP_pressure;BME280_temperature;BME280_humidity;BME280_pressure;Samples;Min_cycle;Max_cycle;Signal;HPM_P1;HPM_P2
2021/12/08 00:00:02;;;;;;;0.50;0.50;;;;;;;;;;5075990;28;20164;-65
2021/12/08 00:02:27;;;;;;;0.50;0.50;;;;;;;;;;5080520;28;20175;-65
2021/12/08 00:04:53;;;;;;;0.60;0.60;;;;;;;;;;5089727;28;20224;-65
2021/12/08 00:07:19;;;;;;;0.50;0.50;;;;;;;;;;5073056;28;20453;-65
2021/12/08 00:09:49;;;;;;;0.47;0.47;;;;;;;;;;5079693;28;20821;-65
2021/12/08 00:15:00;;;;;;;0.50;0.50;;;;;;;;;;5076930;28;20184;-65
2021/12/08 00:17:27;;;;;;;0.50;0.50;;;;;;;;;;5073756;28;20220;-65
2021/12/08 00:19:53;;;;;;;0.60;0.60;;;;;;;;;;5087443;28;20651;-65
2021/12/08 00:22:19;;;;;;;0.50;0.50;;;;;;;;;;5076734;28;20184;-65
2021/12/08 00:24:45;;;;;;;0.50;0.50;;;;;;;;;;5071719;28;20180;-65
2021/12/08 00:27:11;;;;;;;0.50;0.50;;;;;;;;;;5071773;28;20861;-65
2021/12/08 00:29:37;;;;;;;0.60;0.60;;;;;;;;;;5092521;28;20799;-65
2021/12/08 00:32:03;;;;;;;0.50;0.50;;;;;;;;;;5074613;28;20776;-65
2021/12/08 00:34:31;;;;;;;0.40;0.40;;;;;;;;;;5072358;28;20174;-65
2021/12/08 00:37:00;;;;;;;0.50;0.50;;;;;;;;;;5072175;28;20309;-65
2021/12/08 00:39:26;;;;;;;0.50;0.50;;;;;;;;;;5071490;28;20807;-65
2021/12/08 00:41:52;;;;;;;0.50;0.50;;;;;;;;;;5076495;28;20180;-65
2021/12/08 00:44:18;;;;;;;0.50;0.50;;;;;;;;;;5089746;28;20168;-65
2021/12/08 00:46:44;;;;;;;0.50;0.50;;;;;;;;;;5080280;28;20203;-65
2021/12/08 00:49:12;;;;;;;0.60;0.60;;;;;;;;;;5078284;28;20409;-66
2021/12/08 00:51:38;;;;;;;0.40;0.40;;;;;;;;;;5089644;28;20187;-65
2021/12/08 00:54:04;;;;;;;0.60;0.60;;;;;;;;;;5078354;28;20449;-65
2021/12/08 00:56:30;;;;;;;0.60;0.60;;;;;;;;;;5077726;28;20849;-65
2021/12/08 00:58:57;;;;;;;0.50;0.50;;;;;;;;;;5078044;28;20208;-65
2021/12/08 01:01:23;;;;;;;0.60;0.60;;;;;;;;;;5072603;28;20175;-65
2021/12/08 01:03:50;;;;;;;0.60;0.60;;;;;;;;;;5071309;28;20181;-65
2021/12/08 01:06:17;;;;;;;0.50;0.50;;;;;;;;;;5073570;28;20195;-65
2021/12/08 01:08:43;;;;;;;0.50;0.50;;;;;;;;;;5073118;28;20547;-65
2021/12/08 01:11:14;;;;;;;0.50;0.50;;;;;;;;;;5073328;28;20238;-65
2021/12/08 01:13:40;;;;;;;0.50;0.50;;;;;;;;;;5072224;28;20179;-66
2021/12/08 01:16:06;;;;;;;0.50;0.50;;;;;;;;;;5073242;28;20264;-65
2021/12/08 01:18:33;;;;;;;0.50;0.50;;;;;;;;;;5072161;28;20194;-65
2021/12/08 01:21:00;;;;;;;0.50;0.50;;;;;;;;;;5072958;28;20295;-65
2021/12/08 01:23:27;;;;;;;0.50;0.50;;;;;;;;;;5072132;28;20194;-65
2021/12/08 01:25:53;;;;;;;0.40;0.40;;;;;;;;;;5073439;28;20187;-66
2021/12/08 01:28:20;;;;;;;0.60;0.60;;;;;;;;;;5072072;28;20609;-65
2021/12/08 01:30:48;;;;;;;0.60;0.60;;;;;;;;;;5073073;28;20174;-65
2021/12/08 01:33:14;;;;;;;0.50;0.50;;;;;;;;;;5073045;28;20208;-65
2021/12/08 01:35:40;;;;;;;0.50;0.50;;;;;;;;;;5072734;28;20179;-65
2021/12/08 01:38:06;;;;;;;0.50;0.50;;;;;;;;;;5072996;28;20461;-65
2021/12/08 01:40:32;;;;;;;0.50;0.50;;;;;;;;;;5071488;28;20421;-65
2021/12/08 01:43:01;;;;;;;0.50;0.50;;;;;;;;;;5073005;28;20175;-65
2021/12/08 01:48:13;;;;;;;0.50;0.50;;;;;;;;;;5072219;28;20207;-65
2021/12/08 01:50:41;;;;;;;0.50;0.50;;;;;;;;;;5072882;28;20254;-65
2021/12/08 01:53:07;;;;;;;0.40;0.40;;;;;;;;;;5072813;28;20184;-65
2021/12/08 01:55:34;;;;;;;0.60;0.60;;;;;;;;;;5072880;28;20183;-65
2021/12/08 01:58:00;;;;;;;0.60;0.60;;;;;;;;;;5072516;28;20613;-65
2021/12/08 02:00:28;;;;;;;0.60;0.60;;;;;;;;;;5072452;28;20229;-65
2021/12/08 02:02:54;;;;;;;0.50;0.50;;;;;;;;;;5071659;28;20183;-65
2021/12/08 02:05:20;;;;;;;0.50;0.50;;;;;;;;;;5072483;28;20228;-65
2021/12/08 02:07:46;;;;;;;0.50;0.50;;;;;;;;;;5072403;28;20425;-65
2021/12/08 02:10:13;;;;;;;0.50;0.50;;;;;;;;;;5071020;28;20183;-65
2021/12/08 02:12:41;;;;;;;0.60;0.60;;;;;;;;;;5072296;28;20629;-65
2021/12/08 02:15:08;;;;;;;0.50;0.50;;;;;;;;;;5072241;28;20171;-65
2021/12/08 02:17:34;;;;;;;0.50;0.50;;;;;;;;;;5072060;28;20219;-65
2021/12/08 02:20:01;;;;;;;0.40;0.40;;;;;;;;;;5072239;28;20256;-65
2021/12/08 02:22:27;;;;;;;0.50;0.50;;;;;;;;;;5072268;28;20643;-65
2021/12/08 02:24:53;;;;;;;0.43;0.43;;;;;;;;;;5071961;28;20195;-65
2021/12/08 02:27:19;;;;;;;0.43;0.43;;;;;;;;;;5071971;28;20226;-65
2021/12/08 02:29:53;;;;;;;0.50;0.50;;;;;;;;;;5071539;28;20930;-65
2021/12/08 02:48:29;;;;;;;0.50;0.50;;;;;;;;;;5071965;28;20197;-65
2021/12/08 02:50:56;;;;;;;0.50;0.50;;;;;;;;;;5078668;28;20721;-65
2021/12/08 02:53:22;;;;;;;0.60;0.60;;;;;;;;;;5092073;28;20175;-64
2021/12/08 02:55:48;;;;;;;0.50;0.50;;;;;;;;;;5092055;28;20213;-65
2021/12/08 02:58:15;;;;;;;0.50;0.50;;;;;;;;;;5091754;28;20198;-65
2021/12/08 03:00:43;;;;;;;0.50;0.50;;;;;;;;;;5090473;28;20170;-65
2021/12/08 03:03:09;;;;;;;0.50;0.50;;;;;;;;;;5080382;28;20209;-65
2021/12/08 03:05:35;;;;;;;0.50;0.50;;;;;;;;;;5071615;28;20526;-65
2021/12/08 03:08:01;;;;;;;0.60;0.60;;;;;;;;;;5070650;28;20187;-65
2021/12/08 03:10:30;;;;;;;0.50;0.50;;;;;;;;;;5070612;28;20519;-65
2021/12/08 03:12:56;;;;;;;0.50;0.50;;;;;;;;;;5071423;28;20183;-65
2021/12/08 03:15:22;;;;;;;0.50;0.50;;;;;;;;;;5071715;28;20523;-65
2021/12/08 03:17:48;;;;;;;0.40;0.40;;;;;;;;;;5072387;28;20213;-65
2021/12/08 03:20:16;;;;;;;0.40;0.40;;;;;;;;;;5071318;28;20398;-65
2021/12/08 03:22:46;;;;;;;0.40;0.40;;;;;;;;;;5071578;28;20250;-65
2021/12/08 03:25:17;;;;;;;0.40;0.40;;;;;;;;;;5071388;28;20167;-65
2021/12/08 03:27:51;;;;;;;0.50;0.50;;;;;;;;;;5071314;28;20694;-64
2021/12/08 03:30:24;;;;;;;0.43;0.43;;;;;;;;;;5052617;28;20187;-65
2021/12/08 03:32:55;;;;;;;0.50;0.50;;;;;;;;;;5050173;28;20647;-65
2021/12/08 03:35:21;;;;;;;0.40;0.40;;;;;;;;;;5051334;28;20185;-65
2021/12/08 03:37:48;;;;;;;0.40;0.40;;;;;;;;;;5053907;28;20207;-65
2021/12/08 03:40:16;;;;;;;0.40;0.40;;;;;;;;;;5055239;28;20168;-65
2021/12/08 03:42:43;;;;;;;0.40;0.40;;;;;;;;;;5055298;28;20168;-65
2021/12/08 03:45:11;;;;;;;0.50;0.50;;;;;;;;;;5055256;28;20161;-65
2021/12/08 03:47:40;;;;;;;0.50;0.50;;;;;;;;;;5055121;28;20196;-65
2021/12/08 03:50:07;;;;;;;0.47;0.47;;;;;;;;;;5054993;28;20172;-64
2021/12/08 03:52:33;;;;;;;0.50;0.50;;;;;;;;;;5055332;28;20183;-65
2021/12/08 03:54:59;;;;;;;0.40;0.40;;;;;;;;;;5055151;28;20172;-65
2021/12/08 03:57:25;;;;;;;0.60;0.60;;;;;;;;;;5054914;28;21087;-65
2021/12/08 03:59:51;;;;;;;0.40;0.40;;;;;;;;;;5055035;28;21110;-65
2021/12/08 04:02:17;;;;;;;0.50;0.50;;;;;;;;;;5054858;28;20735;-65
2021/12/08 04:04:47;;;;;;;0.50;0.50;;;;;;;;;;5054890;28;20178;-65
2021/12/08 04:07:15;;;;;;;0.50;0.50;;;;;;;;;;5054843;28;20544;-65
2021/12/08 04:09:43;;;;;;;0.50;0.50;;;;;;;;;;5054835;28;20215;-65
2021/12/08 04:12:10;;;;;;;0.50;0.50;;;;;;;;;;5054542;28;20164;-65
2021/12/08 04:14:37;;;;;;;0.50;0.50;;;;;;;;;;5054804;28;20180;-65
2021/12/08 04:17:06;;;;;;;0.50;0.50;;;;;;;;;;5053088;28;20703;-65
2021/12/08 04:19:33;;;;;;;0.50;0.50;;;;;;;;;;5054718;28;20255;-65
2021/12/08 04:22:03;;;;;;;0.40;0.40;;;;;;;;;;5054436;28;20223;-65
2021/12/08 04:24:29;;;;;;;0.50;0.50;;;;;;;;;;5054632;28;20282;-65
2021/12/08 04:26:58;;;;;;;0.50;0.50;;;;;;;;;;5057343;28;20720;-65
2021/12/08 04:29:26;;;;;;;0.40;0.40;;;;;;;;;;5073194;28;20585;-65
2021/12/08 04:31:53;;;;;;;0.40;0.40;;;;;;;;;;5073573;28;20539;-65
2021/12/08 04:34:25;;;;;;;0.40;0.40;;;;;;;;;;5075170;28;20237;-65
2021/12/08 04:36:52;;;;;;;0.40;0.40;;;;;;;;;;5073154;28;20221;-65
2021/12/08 04:39:27;;;;;;;0.50;0.50;;;;;;;;;;5074271;28;20442;-66
2021/12/08 04:41:59;;;;;;;0.40;0.40;;;;;;;;;;5074033;28;20171;-66
2021/12/08 04:44:33;;;;;;;0.40;0.40;;;;;;;;;;5074122;28;20197;-65
2021/12/08 04:47:32;;;;;;;0.50;0.50;;;;;;;;;;5074083;28;20192;-65
2021/12/08 04:50:44;;;;;;;0.40;0.40;;;;;;;;;;5072850;28;20186;-66
2021/12/08 04:53:03;;;;;;;0.40;0.40;;;;;;;;;;5051795;28;20195;-66
2021/12/08 05:06:51;;;;;;;0.40;0.40;;;;;;;;;;5053737;28;20192;-66
2021/12/08 05:09:21;;;;;;;0.50;0.50;;;;;;;;;;5052425;28;20172;-66
2021/12/08 05:11:52;;;;;;;0.35;0.35;;;;;;;;;;5053572;28;20259;-66
2021/12/08 05:14:21;;;;;;;0.30;0.30;;;;;;;;;;5053643;28;20524;-66
2021/12/08 05:16:52;;;;;;;0.40;0.40;;;;;;;;;;5053424;28;20649;-66
2021/12/08 05:19:19;;;;;;;0.40;0.40;;;;;;;;;;5053472;28;20539;-66
2021/12/08 05:21:48;;;;;;;0.40;0.40;;;;;;;;;;5053116;28;20173;-66
2021/12/08 05:24:16;;;;;;;0.40;0.40;;;;;;;;;;5053446;28;20167;-66
2021/12/08 05:26:51;;;;;;;0.40;0.40;;;;;;;;;;5054149;28;20196;-66
2021/12/08 05:29:24;;;;;;;0.40;0.40;;;;;;;;;;5073328;28;20167;-66
2021/12/08 05:31:50;;;;;;;0.50;0.50;;;;;;;;;;5073022;28;20179;-66
2021/12/08 05:34:18;;;;;;;0.40;0.40;;;;;;;;;;5073055;28;20258;-66
2021/12/08 05:36:44;;;;;;;0.40;0.40;;;;;;;;;;5073034;28;20690;-65
2021/12/08 05:39:14;;;;;;;0.50;0.50;;;;;;;;;;5073181;28;20236;-66
2021/12/08 05:41:41;;;;;;;0.40;0.40;;;;;;;;;;5073014;28;20488;-65
2021/12/08 05:44:09;;;;;;;0.40;0.40;;;;;;;;;;5073149;28;20176;-65
2021/12/08 05:46:40;;;;;;;0.50;0.50;;;;;;;;;;5073178;28;20198;-65
2021/12/08 05:49:06;;;;;;;0.40;0.40;;;;;;;;;;5072959;28;20175;-66
2021/12/08 05:51:34;;;;;;;0.40;0.40;;;;;;;;;;5072657;28;20179;-65
2021/12/08 05:54:01;;;;;;;0.40;0.40;;;;;;;;;;5072869;28;20496;-65
2021/12/08 05:56:28;;;;;;;0.40;0.40;;;;;;;;;;5072814;28;20238;-65
2021/12/08 05:58:55;;;;;;;0.50;0.50;;;;;;;;;;5072195;28;20253;-66
2021/12/08 06:01:27;;;;;;;0.40;0.40;;;;;;;;;;5071800;28;20258;-65
2021/12/08 06:03:53;;;;;;;0.40;0.40;;;;;;;;;;5072447;28;20175;-65
2021/12/08 06:06:21;;;;;;;0.40;0.40;;;;;;;;;;5072429;28;20288;-66
2021/12/08 06:08:47;;;;;;;0.40;0.40;;;;;;;;;;5072624;28;20173;-66
2021/12/08 06:11:13;;;;;;;0.40;0.40;;;;;;;;;;5072236;28;20207;-66
2021/12/08 06:13:40;;;;;;;0.40;0.40;;;;;;;;;;5072552;28;20593;-66
2021/12/08 06:16:06;;;;;;;0.40;0.40;;;;;;;;;;5071983;28;20177;-66
2021/12/08 06:18:38;;;;;;;0.50;0.50;;;;;;;;;;5072758;28;20205;-66
2021/12/08 06:21:07;;;;;;;0.50;0.50;;;;;;;;;;5092420;28;20172;-65
2021/12/08 06:23:34;;;;;;;0.40;0.40;;;;;;;;;;5090599;28;20179;-65
2021/12/08 06:26:00;;;;;;;0.40;0.40;;;;;;;;;;5092424;28;20173;-65
2021/12/08 06:28:26;;;;;;;0.40;0.40;;;;;;;;;;5076843;28;20221;-66
2021/12/08 06:30:52;;;;;;;0.40;0.40;;;;;;;;;;5071901;28;20263;-66
2021/12/08 06:33:20;;;;;;;0.43;0.43;;;;;;;;;;5072068;28;20223;-66
2021/12/08 06:35:52;;;;;;;0.40;0.40;;;;;;;;;;5077077;28;20178;-66
2021/12/08 06:38:19;;;;;;;0.40;0.40;;;;;;;;;;5092319;28;20205;-66
2021/12/08 06:40:52;;;;;;;0.50;0.50;;;;;;;;;;5092056;28;20181;-66
2021/12/08 06:43:20;;;;;;;0.40;0.40;;;;;;;;;;5074004;28;20187;-63
2021/12/08 06:45:48;;;;;;;0.40;0.40;;;;;;;;;;5077640;28;20215;-66
2021/12/08 06:48:16;;;;;;;0.50;0.50;;;;;;;;;;5071669;28;20206;-66
2021/12/08 06:50:45;;;;;;;0.40;0.40;;;;;;;;;;5071639;28;20178;-66
2021/12/08 06:53:11;;;;;;;0.40;0.40;;;;;;;;;;5071851;28;20533;-66
2021/12/08 06:55:42;;;;;;;0.40;0.40;;;;;;;;;;5071771;28;20263;-66
2021/12/08 06:58:11;;;;;;;0.40;0.40;;;;;;;;;;5070341;28;20212;-66
2021/12/08 07:00:59;;;;;;;0.30;0.30;;;;;;;;;;5071584;28;20167;-66
2021/12/08 07:03:42;;;;;;;0.40;0.40;;;;;;;;;;5071662;28;20192;-66
2021/12/08 07:06:29;;;;;;;0.40;0.40;;;;;;;;;;5070407;28;20212;-66
2021/12/08 07:08:57;;;;;;;0.40;0.40;;;;;;;;;;5071678;28;20608;-66
2021/12/08 07:11:24;;;;;;;0.40;0.40;;;;;;;;;;5070421;28;20229;-66
2021/12/08 07:13:51;;;;;;;0.50;0.50;;;;;;;;;;5071575;28;20571;-66
2021/12/08 07:16:21;;;;;;;0.40;0.40;;;;;;;;;;5071341;28;20207;-66
2021/12/08 07:19:00;;;;;;;0.40;0.40;;;;;;;;;;5071509;28;20203;-66
2021/12/08 07:21:29;;;;;;;0.40;0.40;;;;;;;;;;5071355;28;20186;-67
2021/12/08 07:23:58;;;;;;;0.40;0.40;;;;;;;;;;5070044;28;20189;-66
2021/12/08 07:26:31;;;;;;;0.47;0.47;;;;;;;;;;5070989;28;20275;-67
2021/12/08 07:28:58;;;;;;;0.40;0.40;;;;;;;;;;5062438;28;20265;-66
2021/12/08 07:31:26;;;;;;;0.40;0.40;;;;;;;;;;5070990;28;20184;-67
2021/12/08 07:33:53;;;;;;;0.40;0.40;;;;;;;;;;5071090;28;20183;-66
2021/12/08 07:36:20;;;;;;;0.40;0.40;;;;;;;;;;5071221;28;20202;-66
2021/12/08 07:38:48;;;;;;;0.40;0.40;;;;;;;;;;5071186;28;20207;-67
2021/12/08 07:41:18;;;;;;;0.40;0.40;;;;;;;;;;5071160;28;20182;-66
2021/12/08 07:43:47;;;;;;;0.40;0.40;;;;;;;;;;5071068;28;20172;-66
2021/12/08 07:46:16;;;;;;;0.40;0.40;;;;;;;;;;5070268;28;20193;-66
2021/12/08 07:48:45;;;;;;;0.40;0.40;;;;;;;;;;5070512;28;20172;-66
2021/12/08 07:51:32;;;;;;;0.40;0.40;;;;;;;;;;5066379;28;20663;-66
2021/12/08 07:53:58;;;;;;;0.40;0.40;;;;;;;;;;5070991;28;20228;-66
2021/12/08 07:56:25;;;;;;;0.40;0.40;;;;;;;;;;5069840;28;20229;-67
2021/12/08 07:58:53;;;;;;;0.40;0.40;;;;;;;;;;5071053;28;20211;-66
2021/12/08 08:01:22;;;;;;;0.40;0.40;;;;;;;;;;5070798;28;20237;-66
2021/12/08 08:03:49;;;;;;;0.50;0.50;;;;;;;;;;5070887;28;20175;-66
2021/12/08 08:06:20;;;;;;;0.40;0.40;;;;;;;;;;5068383;28;20185;-66
2021/12/08 08:08:46;;;;;;;0.40;0.40;;;;;;;;;;5070548;28;20237;-66
2021/12/08 08:11:16;;;;;;;0.40;0.40;;;;;;;;;;5070513;28;20229;-66
2021/12/08 08:13:42;;;;;;;0.40;0.40;;;;;;;;;;5070516;28;20259;-66
2021/12/08 08:16:13;;;;;;;0.50;0.50;;;;;;;;;;5070527;28;20263;-66
2021/12/08 08:18:41;;;;;;;0.50;0.50;;;;;;;;;;5070673;28;20472;-66
2021/12/08 08:21:10;;;;;;;0.50;0.50;;;;;;;;;;5070186;28;20226;-66
2021/12/08 08:23:36;;;;;;;0.40;0.40;;;;;;;;;;5072161;28;20710;-66
2021/12/08 08:26:05;;;;;;;0.40;0.40;;;;;;;;;;5073223;28;20173;-66
2021/12/08 08:28:31;;;;;;;0.40;0.40;;;;;;;;;;5073739;28;20194;-66
2021/12/08 08:31:05;;;;;;;0.50;0.50;;;;;;;;;;5072461;28;20191;-66
2021/12/08 08:33:32;;;;;;;0.40;0.40;;;;;;;;;;5058441;28;20177;-66
2021/12/08 08:36:04;;;;;;;0.40;0.40;;;;;;;;;;5073953;28;20234;-66
2021/12/08 08:38:33;;;;;;;0.40;0.40;;;;;;;;;;5073938;28;20198;-66
2021/12/08 08:41:01;;;;;;;0.40;0.40;;;;;;;;;;5073230;28;20181;-66
2021/12/08 08:43:27;;;;;;;0.40;0.40;;;;;;;;;;5073487;28;20173;-66
2021/12/08 08:45:55;;;;;;;0.50;0.50;;;;;;;;;;5073983;28;20181;-66
2021/12/08 08:48:24;;;;;;;0.40;0.40;;;;;;;;;;5072682;28;20182;-67
2021/12/08 08:50:50;;;;;;;0.50;0.50;;;;;;;;;;5072283;28;20171;-67
2021/12/08 08:53:17;;;;;;;0.50;0.50;;;;;;;;;;5072864;28;20211;-66
2021/12/08 08:55:52;;;;;;;0.40;0.40;;;;;;;;;;5073617;28;20185;-66
2021/12/08 08:58:21;;;;;;;0.40;0.40;;;;;;;;;;5073365;28;20240;-66
2021/12/08 09:00:52;;;;;;;0.40;0.40;;;;;;;;;;5073343;28;20255;-66
2021/12/08 09:03:21;;;;;;;0.35;0.35;;;;;;;;;;5061292;28;20242;-66
2021/12/08 09:05:52;;;;;;;0.50;0.50;;;;;;;;;;5076024;28;20244;-67
2021/12/08 09:08:22;;;;;;;0.40;0.40;;;;;;;;;;5069525;28;20728;-67
2021/12/08 09:10:51;;;;;;;0.50;0.50;;;;;;;;;;5072903;28;20186;-67
2021/12/08 09:13:23;;;;;;;0.40;0.40;;;;;;;;;;5071415;28;20193;-67
2021/12/08 09:15:52;;;;;;;0.40;0.40;;;;;;;;;;5072797;28;20209;-66
2021/12/08 09:18:21;;;;;;;0.50;0.50;;;;;;;;;;5094611;22;20229;-64
2021/12/08 09:20:56;;;;;;;0.50;0.50;;;;;;;;;;5073560;28;20668;-64
2021/12/08 09:23:27;;;;;;;0.40;0.40;;;;;;;;;;5077847;28;20170;-64
2021/12/08 09:26:19;;;;;;;0.40;0.40;;;;;;;;;;5093446;28;20196;-64
2021/12/08 09:28:51;;;;;;;0.50;0.50;;;;;;;;;;5072265;28;20709;-64
2021/12/08 09:31:35;;;;;;;0.50;0.50;;;;;;;;;;5097028;28;20185;-64
2021/12/08 09:34:07;;;;;;;0.50;0.50;;;;;;;;;;5093210;28;20196;-64
2021/12/08 09:36:36;;;;;;;0.50;0.50;;;;;;;;;;5074762;28;20257;-65
2021/12/08 09:39:06;;;;;;;0.40;0.40;;;;;;;;;;5092751;28;20246;-65
2021/12/08 09:41:41;;;;;;;0.40;0.40;;;;;;;;;;5075937;28;20223;-65
2021/12/08 09:44:10;;;;;;;0.40;0.40;;;;;;;;;;5100577;28;20174;-64
2021/12/08 09:46:39;;;;;;;0.40;0.40;;;;;;;;;;5083609;28;20188;-65
2021/12/08 09:49:06;;;;;;;0.40;0.40;;;;;;;;;;5079342;28;20192;-65
2021/12/08 09:51:32;;;;;;;0.50;0.50;;;;;;;;;;5081508;28;20241;-65
2021/12/08 09:53:58;;;;;;;0.40;0.40;;;;;;;;;;5097096;28;20210;-65
2021/12/08 09:56:25;;;;;;;0.50;0.50;;;;;;;;;;5079317;28;20659;-65
2021/12/08 09:58:53;;;;;;;0.50;0.50;;;;;;;;;;5082668;28;20467;-65
2021/12/08 10:01:21;;;;;;;0.40;0.40;;;;;;;;;;5095790;28;20176;-65
2021/12/08 10:03:52;;;;;;;0.40;0.40;;;;;;;;;;5092630;28;20251;-63
2021/12/08 10:06:19;;;;;;;0.40;0.40;;;;;;;;;;5081836;28;20211;-64
2021/12/08 10:08:46;;;;;;;0.50;0.50;;;;;;;;;;5085071;28;20674;-65
2021/12/08 10:11:12;;;;;;;0.40;0.40;;;;;;;;;;5081890;28;20194;-65
2021/12/08 10:13:38;;;;;;;0.40;0.40;;;;;;;;;;5085842;28;20185;-65
2021/12/08 10:16:05;;;;;;;0.40;0.40;;;;;;;;;;5098115;28;20179;-65
2021/12/08 10:18:31;;;;;;;0.40;0.40;;;;;;;;;;5108091;28;20524;-65
2021/12/08 10:20:57;;;;;;;0.40;0.40;;;;;;;;;;5097201;28;20174;-65
2021/12/08 10:23:28;;;;;;;0.50;0.50;;;;;;;;;;5103725;28;20176;-65
2021/12/08 10:25:59;;;;;;;0.45;0.45;;;;;;;;;;5105862;28;20199;-65
2021/12/08 10:28:34;;;;;;;0.50;0.50;;;;;;;;;;5096214;28;20215;-64
2021/12/08 10:31:03;;;;;;;0.50;0.50;;;;;;;;;;5104957;28;20290;-64
2021/12/08 10:33:45;;;;;;;0.50;0.50;;;;;;;;;;5099295;28;20179;-64
2021/12/08 10:38:58;;;;;;;0.60;0.60;;;;;;;;;;5078365;28;20221;-64
2021/12/08 10:41:24;;;;;;;0.50;0.50;;;;;;;;;;5079811;28;20574;-64
2021/12/08 10:44:00;;;;;;;0.50;0.50;;;;;;;;;;5080962;28;20185;-64
2021/12/08 10:46:32;;;;;;;0.50;0.50;;;;;;;;;;5079934;28;20163;-65
2021/12/08 10:49:12;;;;;;;0.40;0.40;;;;;;;;;;5080819;28;20741;-64
2021/12/08 10:54:30;;;;;;;0.50;0.50;;;;;;;;;;5081885;28;20191;-64
2021/12/08 10:56:57;;;;;;;0.45;0.45;;;;;;;;;;5079356;28;20570;-65
2021/12/08 10:59:43;;;;;;;0.50;0.50;;;;;;;;;;5079230;28;20225;-64
2021/12/08 11:02:29;;;;;;;0.50;0.50;;;;;;;;;;5064106;28;20271;-65
2021/12/08 11:04:55;;;;;;;0.50;0.50;;;;;;;;;;5080954;28;20177;-64
2021/12/08 11:07:21;;;;;;;0.50;0.50;;;;;;;;;;5081950;28;20212;-64
2021/12/08 11:09:47;;;;;;;0.40;0.40;;;;;;;;;;5079963;28;20423;-64
2021/12/08 11:12:13;;;;;;;0.40;0.40;;;;;;;;;;5080311;28;20499;-64
2021/12/08 11:14:43;;;;;;;0.50;0.50;;;;;;;;;;5077447;28;20438;-64
2021/12/08 11:17:28;;;;;;;0.40;0.40;;;;;;;;;;5081648;28;20456;-64
2021/12/08 11:20:13;;;;;;;0.50;0.50;;;;;;;;;;5081290;28;20272;-64
2021/12/08 11:22:39;;;;;;;0.50;0.50;;;;;;;;;;5080999;28;20181;-64
2021/12/08 11:25:06;;;;;;;0.50;0.50;;;;;;;;;;5079619;28;20542;-64
2021/12/08 11:27:37;;;;;;;0.40;0.40;;;;;;;;;;5080848;28;20660;-64
2021/12/08 11:30:13;;;;;;;0.40;0.40;;;;;;;;;;5080819;28;20667;-63
2021/12/08 11:32:39;;;;;;;0.50;0.50;;;;;;;;;;5081192;28;20181;-64
2021/12/08 11:35:05;;;;;;;0.50;0.50;;;;;;;;;;5084451;28;20191;-63
2021/12/08 11:37:35;;;;;;;0.50;0.50;;;;;;;;;;5068701;28;20464;-64
2021/12/08 11:40:02;;;;;;;0.50;0.50;;;;;;;;;;5079756;28;20195;-64
2021/12/08 11:42:31;;;;;;;0.50;0.50;;;;;;;;;;5081464;28;20164;-64
2021/12/08 11:44:58;;;;;;;0.40;0.40;;;;;;;;;;5079573;28;20169;-64
2021/12/08 11:47:33;;;;;;;0.50;0.50;;;;;;;;;;5081677;28;20204;-64
2021/12/08 11:50:00;;;;;;;0.40;0.40;;;;;;;;;;5082132;28;20173;-64
2021/12/08 11:52:29;;;;;;;0.50;0.50;;;;;;;;;;5079232;28;20660;-64
2021/12/08 11:55:00;;;;;;;0.50;0.50;;;;;;;;;;5079687;28;20219;-64
2021/12/08 11:57:32;;;;;;;0.50;0.50;;;;;;;;;;5082737;28;20194;-65
2021/12/08 12:00:01;;;;;;;0.45;0.45;;;;;;;;;;5082525;28;20171;-65
2021/12/08 12:02:38;;;;;;;0.50;0.50;;;;;;;;;;5085446;28;20173;-65
2021/12/08 12:05:06;;;;;;;0.50;0.50;;;;;;;;;;5083568;28;20188;-64
2021/12/08 12:07:32;;;;;;;0.50;0.50;;;;;;;;;;5083225;28;20281;-65
2021/12/08 12:09:59;;;;;;;0.43;0.43;;;;;;;;;;5084729;28;20178;-64
2021/12/08 12:12:25;;;;;;;0.40;0.40;;;;;;;;;;5083158;28;20171;-65
2021/12/08 12:14:51;;;;;;;0.40;0.40;;;;;;;;;;5085948;28;20261;-65
2021/12/08 12:17:17;;;;;;;0.60;0.60;;;;;;;;;;5083368;28;20284;-64
2021/12/08 12:19:46;;;;;;;0.50;0.50;;;;;;;;;;5084924;28;20215;-64
2021/12/08 12:22:31;;;;;;;0.50;0.50;;;;;;;;;;5084905;28;20670;-64
2021/12/08 12:25:12;;;;;;;0.50;0.50;;;;;;;;;;5084184;28;20186;-65
2021/12/08 12:27:40;;;;;;;0.45;0.45;;;;;;;;;;5083337;28;20197;-65
2021/12/08 12:30:06;;;;;;;0.50;0.50;;;;;;;;;;5084354;28;20269;-64
2021/12/08 12:32:34;;;;;;;0.40;0.40;;;;;;;;;;5083332;28;20265;-65
2021/12/08 12:35:09;;;;;;;0.50;0.50;;;;;;;;;;5082834;28;20413;-65
2021/12/08 12:37:36;;;;;;;0.50;0.50;;;;;;;;;;5081014;28;20844;-65
2021/12/08 12:40:03;;;;;;;0.40;0.40;;;;;;;;;;5083918;28;20609;-65
2021/12/08 12:42:42;;;;;;;0.50;0.50;;;;;;;;;;5083928;28;20182;-65
2021/12/08 12:45:11;;;;;;;0.40;0.40;;;;;;;;;;5085679;28;20176;-65
2021/12/08 12:47:37;;;;;;;0.40;0.40;;;;;;;;;;5063391;28;20200;-65
2021/12/08 12:50:09;;;;;;;0.50;0.50;;;;;;;;;;5094235;28;20708;-65
2021/12/08 12:52:39;;;;;;;0.50;0.50;;;;;;;;;;5069291;28;20185;-65
2021/12/08 12:55:07;;;;;;;0.50;0.50;;;;;;;;;;5087257;28;20268;-65
2021/12/08 12:57:33;;;;;;;0.50;0.50;;;;;;;;;;5074524;28;20588;-65
2021/12/08 12:59:59;;;;;;;0.50;0.50;;;;;;;;;;5082736;28;20178;-65
2021/12/08 13:02:31;;;;;;;0.50;0.50;;;;;;;;;;5106604;28;20519;-65
2021/12/08 13:04:58;;;;;;;0.40;0.40;;;;;;;;;;5096752;28;20775;-65
2021/12/08 13:07:25;;;;;;;0.40;0.40;;;;;;;;;;5097478;28;20283;-65
2021/12/08 13:09:55;;;;;;;0.40;0.40;;;;;;;;;;5103448;28;20184;-65
2021/12/08 13:12:24;;;;;;;0.50;0.50;;;;;;;;;;5113926;28;20173;-65
2021/12/08 13:15:05;;;;;;;0.40;0.40;;;;;;;;;;5113804;28;20536;-65
2021/12/08 13:17:32;;;;;;;0.40;0.40;;;;;;;;;;5113869;28;20215;-65
2021/12/08 13:20:01;;;;;;;0.40;0.40;;;;;;;;;;5102338;28;20206;-65
2021/12/08 13:22:47;;;;;;;0.50;0.50;;;;;;;;;;5072507;28;20175;-64
2021/12/08 13:25:29;;;;;;;0.40;0.40;;;;;;;;;;5086229;28;20577;-65
2021/12/08 13:27:56;;;;;;;0.40;0.40;;;;;;;;;;5106279;28;20197;-65
2021/12/08 13:30:23;;;;;;;0.40;0.40;;;;;;;;;;5084184;28;20588;-65
2021/12/08 13:32:57;;;;;;;0.40;0.40;;;;;;;;;;5073435;28;20239;-65
2021/12/08 13:35:36;;;;;;;0.40;0.40;;;;;;;;;;5087682;28;20207;-65
2021/12/08 13:38:02;;;;;;;0.50;0.50;;;;;;;;;;5093230;28;20205;-65
2021/12/08 13:40:40;;;;;;;0.50;0.50;;;;;;;;;;5078626;28;20187;-67
2021/12/08 13:43:07;;;;;;;0.40;0.40;;;;;;;;;;5079442;28;20256;-64
2021/12/08 13:45:43;;;;;;;0.60;0.60;;;;;;;;;;5093140;28;20173;-65
2021/12/08 13:48:09;;;;;;;0.50;0.50;;;;;;;;;;5093052;28;20585;-65
2021/12/08 13:50:36;;;;;;;0.40;0.40;;;;;;;;;;5092958;28;20173;-64
2021/12/08 13:53:09;;;;;;;0.40;0.40;;;;;;;;;;5092971;28;20172;-65
2021/12/08 13:55:38;;;;;;;0.50;0.50;;;;;;;;;;5092369;28;20186;-64
2021/12/08 13:58:05;;;;;;;0.45;0.45;;;;;;;;;;5092809;28;20254;-65
2021/12/08 14:00:39;;;;;;;0.40;0.40;;;;;;;;;;5091746;28;20173;-66
2021/12/08 14:03:05;;;;;;;0.50;0.50;;;;;;;;;;5090811;28;20172;-62
2021/12/08 14:05:36;;;;;;;0.40;0.40;;;;;;;;;;5089432;28;20185;-65
2021/12/08 14:08:08;;;;;;;0.50;0.50;;;;;;;;;;5092564;28;20613;-65
2021/12/08 14:10:36;;;;;;;0.40;0.40;;;;;;;;;;5091867;28;20182;-64
2021/12/08 14:13:04;;;;;;;0.40;0.40;;;;;;;;;;5080134;28;20182;-65
2021/12/08 14:15:35;;;;;;;0.50;0.50;;;;;;;;;;5072363;28;20659;-64
2021/12/08 14:18:15;;;;;;;0.50;0.50;;;;;;;;;;5077526;28;20283;-65
2021/12/08 14:20:42;;;;;;;0.50;0.50;;;;;;;;;;5096467;28;20263;-64
2021/12/08 14:23:08;;;;;;;0.50;0.50;;;;;;;;;;5072520;28;20688;-64
2021/12/08 14:25:43;;;;;;;0.40;0.40;;;;;;;;;;5072491;28;20189;-65
2021/12/08 14:28:28;;;;;;;0.50;0.50;;;;;;;;;;5092722;28;20189;-65
2021/12/08 14:30:55;;;;;;;0.50;0.50;;;;;;;;;;5096476;28;20196;-65
2021/12/08 14:33:25;;;;;;;0.40;0.40;;;;;;;;;;5092525;28;20177;-64
2021/12/08 14:35:59;;;;;;;0.55;0.55;;;;;;;;;;5072029;28;20185;-64
2021/12/08 14:38:25;;;;;;;0.40;0.40;;;;;;;;;;5072112;28;20205;-65
2021/12/08 14:40:51;;;;;;;0.50;0.50;;;;;;;;;;5071985;28;20202;-64
2021/12/08 14:43:24;;;;;;;0.40;0.40;;;;;;;;;;5072078;28;20197;-64
2021/12/08 14:45:50;;;;;;;0.40;0.40;;;;;;;;;;5072096;28;20173;-65
2021/12/08 14:48:16;;;;;;;0.40;0.40;;;;;;;;;;5074311;28;20199;-64
2021/12/08 14:50:42;;;;;;;0.40;0.40;;;;;;;;;;5096446;28;20211;-65
2021/12/08 14:53:12;;;;;;;0.40;0.40;;;;;;;;;;5114561;28;20176;-64
2021/12/08 14:55:38;;;;;;;0.40;0.40;;;;;;;;;;5099174;28;20425;-65
2021/12/08 14:58:04;;;;;;;0.40;0.40;;;;;;;;;;5111559;28;20247;-64
2021/12/08 15:00:32;;;;;;;0.40;0.40;;;;;;;;;;5112220;28;20591;-65
2021/12/08 15:03:00;;;;;;;0.40;0.40;;;;;;;;;;5098334;28;20418;-65
2021/12/08 15:05:26;;;;;;;0.40;0.40;;;;;;;;;;5071389;28;20174;-64
2021/12/08 15:07:52;;;;;;;0.40;0.40;;;;;;;;;;5077320;28;20202;-65
2021/12/08 15:10:29;;;;;;;0.40;0.40;;;;;;;;;;5085107;28;20285;-64
2021/12/08 15:13:10;;;;;;;0.40;0.40;;;;;;;;;;5097249;28;20705;-65
2021/12/08 15:15:36;;;;;;;0.50;0.50;;;;;;;;;;5108875;28;20181;-65
2021/12/08 15:18:05;;;;;;;0.50;0.50;;;;;;;;;;5094542;22;20280;-65
2021/12/08 15:20:33;;;;;;;0.40;0.40;;;;;;;;;;5085224;28;20539;-65
2021/12/08 15:22:58;;;;;;;0.40;0.40;;;;;;;;;;5091672;28;20624;-65
2021/12/08 15:25:24;;;;;;;0.40;0.40;;;;;;;;;;5078458;28;20234;-66
2021/12/08 15:27:52;;;;;;;0.40;0.40;;;;;;;;;;5092540;28;20190;-66
2021/12/08 15:30:34;;;;;;;0.40;0.40;;;;;;;;;;5091652;28;20879;-66
2021/12/08 15:33:01;;;;;;;0.40;0.40;;;;;;;;;;5093149;28;20558;-66